Terminal Aerodrome Forecast
Issued by NWS North Platte, NE

Home | Current Version | Previous Version | Text Only | Print | Product List | Glossary Off
Versions: 1 2 3 4 5 6 7 8 9 10 11 12 13 14 15 16

000
FTUS43 KLBF 270500
TAFVTN
TAF
KVTN 270521Z 2706/2806 36009KT P6SM OVC040
      TEMPO 2706/2708 3SM -SN BR OVC030
     FM271000 32006KT P6SM SCT030 BKN100
     FM271200 33008KT P6SM SCT100 BKN250
     FM271500 27009KT P6SM SKC
     FM280000 VRB06KT P6SM SKC=

USA.gov is the U.S. government's official web portal to all federal, state and local government web resources and services.